createdAt,value
2022-11-30T00:00:17.382Z,99.8
2022-11-30T00:01:16.850Z,99.8
2022-11-30T00:02:17.317Z,99.8
2022-11-30T00:03:17.047Z,99.8
2022-11-30T00:04:16.551Z,99.7
2022-11-30T00:05:17.040Z,99.7
2022-11-30T00:06:16.535Z,99.8
2022-11-30T00:07:17.130Z,99.8
2022-11-30T00:08:16.634Z,99.8
2022-11-30T00:09:17.101Z,99.7
2022-11-30T00:10:16.578Z,99.8
2022-11-30T00:11:17.059Z,99.7
2022-11-30T00:12:16.657Z,99.7
2022-11-30T00:13:17.115Z,99.7
2022-11-30T00:14:16.583Z,99.6
2022-11-30T00:15:17.120Z,99.6
2022-11-30T00:16:16.804Z,99.5
2022-11-30T00:17:17.450Z,99.5
2022-11-30T00:18:16.917Z,99.5
2022-11-30T00:19:17.401Z,99.5
2022-11-30T00:20:16.869Z,99.4
2022-11-30T00:21:17.368Z,99.3
2022-11-30T00:22:17.426Z,99.3
2022-11-30T00:23:16.916Z,99.3
2022-11-30T00:24:17.420Z,99.5
2022-11-30T00:25:16.937Z,99.5
2022-11-30T00:26:17.441Z,99.5
2022-11-30T00:27:17.015Z,99.5
2022-11-30T00:28:16.500Z,99.5
2022-11-30T00:29:16.979Z,99.5
2022-11-30T00:30:16.471Z,99.5
2022-11-30T00:31:17.111Z,99.5
2022-11-30T00:32:17.387Z,99.5
2022-11-30T00:33:16.854Z,99.5
2022-11-30T00:34:17.329Z,99.5
2022-11-30T00:35:16.826Z,99.5
2022-11-30T00:36:17.327Z,99.5
2022-11-30T00:37:16.826Z,99.5
2022-11-30T00:38:17.318Z,99.5
2022-11-30T00:39:16.777Z,99.5
2022-11-30T00:40:17.315Z,99.6
2022-11-30T00:41:16.804Z,99.5
2022-11-30T00:42:16.617Z,99.5
2022-11-30T00:43:17.092Z,99.7
2022-11-30T00:44:16.639Z,99.6
2022-11-30T00:45:17.116Z,99.5
2022-11-30T00:46:16.744Z,99.6
2022-11-30T00:47:17.260Z,99.7
2022-11-30T00:48:16.762Z,99.7
2022-11-30T00:49:17.249Z,99.7
2022-11-30T00:50:16.741Z,99.7
2022-11-30T00:51:17.238Z,99.7
2022-11-30T00:52:16.722Z,99.7
2022-11-30T00:53:17.212Z,99.7
2022-11-30T00:54:16.736Z,99.7
2022-11-30T00:55:17.203Z,99.7
2022-11-30T00:56:16.672Z,99.8
2022-11-30T00:57:17.181Z,99.8
2022-11-30T00:58:16.636Z,99.7
2022-11-30T00:59:17.108Z,99.7
2022-11-30T01:00:16.580Z,99.7
2022-11-30T01:01:17.224Z,99.7
2022-11-30T01:02:17.547Z,99.7
2022-11-30T01:03:17.049Z,99.7
2022-11-30T01:04:16.569Z,99.6
2022-11-30T01:05:17.035Z,99.6
2022-11-30T01:06:16.511Z,99.6
2022-11-30T01:07:17.170Z,99.6
2022-11-30T01:08:16.646Z,99.5
2022-11-30T01:09:17.098Z,99.5
2022-11-30T01:10:16.585Z,99.5
2022-11-30T01:11:17.044Z,99.6
2022-11-30T01:12:17.129Z,99.6
2022-11-30T01:13:16.610Z,99.6
2022-11-30T01:14:17.109Z,99.6
2022-11-30T01:15:16.629Z,99.5
2022-11-30T01:16:17.346Z,99.6
2022-11-30T01:17:16.903Z,99.5
2022-11-30T01:18:17.389Z,99.5
2022-11-30T01:19:16.870Z,99.5
2022-11-30T01:20:17.351Z,99.6
2022-11-30T01:21:16.845Z,99.5
2022-11-30T01:22:16.527Z,99.5
2022-11-30T01:23:16.989Z,99.6
2022-11-30T01:24:16.517Z,99.5
2022-11-30T01:25:16.969Z,99.5
2022-11-30T01:26:17.420Z,99.5
2022-11-30T01:27:16.938Z,99.5
2022-11-30T01:28:17.396Z,99.5
2022-11-30T01:29:16.954Z,99.4
2022-11-30T01:30:17.507Z,99.3
2022-11-30T01:31:17.133Z,99.4
2022-11-30T01:32:17.477Z,99.4
2022-11-30T01:33:16.950Z,99.4
2022-11-30T01:34:17.458Z,99.3
2022-11-30T01:35:16.973Z,99.2
2022-11-30T01:36:17.431Z,99.2
2022-11-30T01:37:16.916Z,99.4
2022-11-30T01:38:17.396Z,99.4
2022-11-30T01:39:16.901Z,99.4
2022-11-30T01:40:17.404Z,99.4
2022-11-30T01:41:16.874Z,99.5
2022-11-30T01:42:16.575Z,99.5
2022-11-30T01:43:17.060Z,99.5
2022-11-30T01:44:20.516Z,99.5
2022-11-30T01:45:17.038Z,99.5
2022-11-30T01:46:16.691Z,99.5
2022-11-30T01:47:17.200Z,99.5
2022-11-30T01:48:16.687Z,99.5
2022-11-30T01:49:17.173Z,99.5
2022-11-30T01:50:16.670Z,99.5
2022-11-30T01:51:17.146Z,99.6
2022-11-30T01:52:17.088Z,99.7
2022-11-30T01:53:16.561Z,99.6
2022-11-30T01:54:17.007Z,99.6
2022-11-30T01:55:16.463Z,99.7
2022-11-30T01:56:16.941Z,99.6
2022-11-30T01:57:17.444Z,99.7
2022-11-30T01:58:16.925Z,99.6
2022-11-30T01:59:17.424Z,99.6
2022-11-30T02:00:16.926Z,99.6
2022-11-30T02:01:17.575Z,99.7
2022-11-30T02:02:17.034Z,99.7
2022-11-30T02:03:16.553Z,99.7
2022-11-30T02:04:17.146Z,99.7
2022-11-30T02:05:16.708Z,99.7
2022-11-30T02:06:17.173Z,99.8
2022-11-30T02:07:17.136Z,99.7
2022-11-30T02:08:16.939Z,99.8
2022-11-30T02:09:16.461Z,99.8
2022-11-30T02:10:16.940Z,99.8
2022-11-30T02:11:17.391Z,99.7
2022-11-30T02:12:17.394Z,99.7
2022-11-30T02:13:16.879Z,99.7
2022-11-30T02:14:17.403Z,99.7
2022-11-30T02:15:17.179Z,99.7
2022-11-30T02:16:16.946Z,99.7
2022-11-30T02:17:16.566Z,99.7
2022-11-30T02:18:17.078Z,99.7
2022-11-30T02:19:16.550Z,99.7
2022-11-30T02:20:17.051Z,99.7
2022-11-30T02:21:16.531Z,99.7
2022-11-30T02:22:17.286Z,99.7
2022-11-30T02:23:16.921Z,99.7
2022-11-30T02:24:17.434Z,99.8
2022-11-30T02:25:16.910Z,99.8
2022-11-30T02:26:17.424Z,99.8
2022-11-30T02:27:16.940Z,99.7
2022-11-30T02:28:17.605Z,99.7
2022-11-30T02:29:17.140Z,99.7
2022-11-30T02:30:16.660Z,99.8
2022-11-30T02:31:17.256Z,99.8
2022-11-30T02:32:16.533Z,99.8
2022-11-30T02:33:16.995Z,99.8
2022-11-30T02:34:16.489Z,99.8
2022-11-30T02:35:17.071Z,99.8
2022-11-30T02:36:16.532Z,99.8
2022-11-30T02:37:17.040Z,99.8
2022-11-30T02:38:16.524Z,99.9
2022-11-30T02:39:17.043Z,99.9
2022-11-30T02:40:16.541Z,99.8
2022-11-30T02:41:17.015Z,99.9
2022-11-30T02:42:16.540Z,99.8
2022-11-30T02:43:17.054Z,99.8
2022-11-30T02:44:16.524Z,99.7
2022-11-30T02:45:17.026Z,99.8
2022-11-30T02:46:16.602Z,99.8
2022-11-30T02:47:17.137Z,99.8
2022-11-30T02:48:16.601Z,99.8
2022-11-30T02:49:17.070Z,99.8
2022-11-30T02:50:16.557Z,99.7
2022-11-30T02:51:17.008Z,99.8
2022-11-30T02:52:17.366Z,99.8
2022-11-30T02:53:16.842Z,99.8
2022-11-30T02:54:17.335Z,99.7
2022-11-30T02:55:16.837Z,99.6
2022-11-30T02:56:17.319Z,99.7
2022-11-30T02:57:16.787Z,99.7
2022-11-30T02:58:17.315Z,99.7
2022-11-30T02:59:16.805Z,99.7
2022-11-30T03:00:17.331Z,99.7
2022-11-30T03:01:16.838Z,99.8
2022-11-30T03:02:17.135Z,99.7
2022-11-30T03:03:16.615Z,99.6
2022-11-30T03:04:17.151Z,99.7
2022-11-30T03:05:16.623Z,99.7
2022-11-30T03:06:17.122Z,99.7
2022-11-30T03:07:16.780Z,99.7
2022-11-30T03:08:17.315Z,99.7
2022-11-30T03:09:16.836Z,99.7
2022-11-30T03:10:17.308Z,99.7
2022-11-30T03:11:16.832Z,99.7
2022-11-30T03:12:16.571Z,99.7
2022-11-30T03:13:17.082Z,99.7
2022-11-30T03:14:16.550Z,99.7
2022-11-30T03:15:17.036Z,99.7
2022-11-30T03:16:16.676Z,99.7
2022-11-30T03:17:17.178Z,99.7
2022-11-30T03:18:16.659Z,99.7
2022-11-30T03:19:17.154Z,99.8
2022-11-30T03:20:16.612Z,99.7
2022-11-30T03:21:17.077Z,99.6
2022-11-30T03:22:16.516Z,99.6
2022-11-30T03:23:17.013Z,99.6
2022-11-30T03:24:16.521Z,99.6
2022-11-30T03:25:17.031Z,99.7
2022-11-30T03:26:16.529Z,99.6
2022-11-30T03:27:17.132Z,99.6
2022-11-30T03:28:16.927Z,99.5
2022-11-30T03:29:17.418Z,99.5
2022-11-30T03:30:16.905Z,99.5
2022-11-30T03:31:17.522Z,99.5
2022-11-30T03:32:16.625Z,99.5
2022-11-30T03:33:17.231Z,99.6
2022-11-30T03:34:16.707Z,99.7
2022-11-30T03:35:17.184Z,99.7
2022-11-30T03:36:16.662Z,99.7
2022-11-30T03:37:17.141Z,99.7
2022-11-30T03:38:16.624Z,99.6
2022-11-30T03:39:17.107Z,99.7
2022-11-30T03:40:16.614Z,99.7
2022-11-30T03:41:17.144Z,99.7
2022-11-30T03:42:17.558Z,99.7
2022-11-30T03:43:17.038Z,99.7
2022-11-30T03:44:16.539Z,99.7
2022-11-30T03:45:17.046Z,99.7
2022-11-30T03:46:16.696Z,99.6
2022-11-30T03:47:17.271Z,99.7
2022-11-30T03:48:16.791Z,99.7
2022-11-30T03:49:17.294Z,99.7
2022-11-30T03:50:16.806Z,99.8
2022-11-30T03:51:17.291Z,99.8
2022-11-30T03:52:17.309Z,99.8
2022-11-30T03:53:16.812Z,99.7
2022-11-30T03:54:17.339Z,99.8
2022-11-30T03:55:16.827Z,99.8
2022-11-30T03:56:17.304Z,99.8
2022-11-30T03:57:16.761Z,99.7
2022-11-30T03:58:17.225Z,99.7
2022-11-30T03:59:16.702Z,99.7
2022-11-30T04:00:17.164Z,99.7
2022-11-30T04:01:16.742Z,99.7
2022-11-30T04:02:16.855Z,99.7
2022-11-30T04:03:17.407Z,99.6
2022-11-30T04:04:16.952Z,99.6
2022-11-30T04:05:17.430Z,99.6
2022-11-30T04:06:16.957Z,99.6
2022-11-30T04:07:16.646Z,99.6
2022-11-30T04:08:17.189Z,99.6
2022-11-30T04:09:16.665Z,99.6
2022-11-30T04:10:17.136Z,99.6
2022-11-30T04:11:16.661Z,99.6
2022-11-30T04:12:17.114Z,99.5
2022-11-30T04:13:16.574Z,99.5
2022-11-30T04:14:17.072Z,99.5
2022-11-30T04:15:16.572Z,99.5
2022-11-30T04:16:17.140Z,99.5
2022-11-30T04:17:16.602Z,99.5
2022-11-30T04:18:17.069Z,99.5
2022-11-30T04:19:16.579Z,99.5
2022-11-30T04:20:17.058Z,99.5
2022-11-30T04:21:16.548Z,99.5
2022-11-30T04:22:17.433Z,99.5
2022-11-30T04:23:16.960Z,99.5
2022-11-30T04:24:17.461Z,99.5
2022-11-30T04:25:16.949Z,99.5
2022-11-30T04:26:17.437Z,99.5
2022-11-30T04:27:16.929Z,99.5
2022-11-30T04:28:17.406Z,99.5
2022-11-30T04:29:16.892Z,99.6
2022-11-30T04:30:17.404Z,99.5
2022-11-30T04:31:17.049Z,99.5
2022-11-30T04:32:16.665Z,99.5
2022-11-30T04:33:17.129Z,99.5
2022-11-30T04:34:16.614Z,99.5
2022-11-30T04:35:17.095Z,99.6
2022-11-30T04:36:16.606Z,99.6
2022-11-30T04:37:17.112Z,99.5
2022-11-30T04:38:16.590Z,99.7
2022-11-30T04:39:17.064Z,99.7
2022-11-30T04:40:16.549Z,99.5
2022-11-30T04:41:17.017Z,99.5
2022-11-30T04:42:17.323Z,99.5
2022-11-30T04:43:16.890Z,99.5
2022-11-30T04:44:17.376Z,99.5
2022-11-30T04:45:16.847Z,99.5
2022-11-30T04:46:17.438Z,99.5
2022-11-30T04:47:16.986Z,99.5
2022-11-30T04:48:16.462Z,99.6
2022-11-30T04:49:16.949Z,99.6
2022-11-30T04:50:17.421Z,99.5
2022-11-30T04:51:16.938Z,99.5
2022-11-30T04:52:16.948Z,99.6
2022-11-30T04:53:17.429Z,99.5
2022-11-30T04:54:16.931Z,99.5
2022-11-30T04:55:17.416Z,99.6
2022-11-30T04:56:16.903Z,99.6
2022-11-30T04:57:17.394Z,99.7
2022-11-30T04:58:16.857Z,99.7
2022-11-30T04:59:17.341Z,99.7
2022-11-30T05:00:16.813Z,99.8
2022-11-30T05:01:17.442Z,99.8
2022-11-30T05:02:16.867Z,99.8
2022-11-30T05:03:17.344Z,99.8
2022-11-30T05:04:16.951Z,99.8
2022-11-30T05:05:16.501Z,99.8
2022-11-30T05:06:17.003Z,99.8
2022-11-30T05:07:16.513Z,99.7
2022-11-30T05:08:16.994Z,99.6
2022-11-30T05:09:16.474Z,99.5
2022-11-30T05:10:16.937Z,99.5
2022-11-30T05:11:17.437Z,99.5
2022-11-30T05:12:17.348Z,99.5
2022-11-30T05:13:16.821Z,99.6
2022-11-30T05:14:17.323Z,99.6
2022-11-30T05:15:16.778Z,99.5
2022-11-30T05:16:17.401Z,99.5
2022-11-30T05:17:16.989Z,99.5
2022-11-30T05:18:16.473Z,99.5
2022-11-30T05:19:16.960Z,99.5
2022-11-30T05:20:17.454Z,99.5
2022-11-30T05:21:16.969Z,99.7
2022-11-30T05:22:17.196Z,99.6
2022-11-30T05:23:16.709Z,99.5
2022-11-30T05:24:17.214Z,99.5
2022-11-30T05:25:16.703Z,99.6
2022-11-30T05:26:17.176Z,99.5
2022-11-30T05:27:22.909Z,99.4
2022-11-30T05:28:17.463Z,99.5
2022-11-30T05:29:16.974Z,99.5
2022-11-30T05:30:16.460Z,99.4
2022-11-30T05:31:17.174Z,99.5
2022-11-30T05:32:17.364Z,99.4
2022-11-30T05:33:16.844Z,99.4
2022-11-30T05:34:17.350Z,99.5
2022-11-30T05:35:16.877Z,99.5
2022-11-30T05:36:17.353Z,99.5
2022-11-30T05:37:16.917Z,99.6
2022-11-30T05:38:17.385Z,99.5
2022-11-30T05:39:16.867Z,99.5
2022-11-30T05:40:17.330Z,99.5
2022-11-30T05:41:16.803Z,99.5
2022-11-30T05:42:17.175Z,99.6
2022-11-30T05:43:16.648Z,99.6
2022-11-30T05:44:17.172Z,99.6
2022-11-30T05:45:16.644Z,99.5
2022-11-30T05:46:17.178Z,99.5
2022-11-30T05:47:17.016Z,99.5
2022-11-30T05:48:16.551Z,99.5
2022-11-30T05:49:17.041Z,99.5
2022-11-30T05:50:16.566Z,99.5
2022-11-30T05:51:17.062Z,99.5
2022-11-30T05:52:16.501Z,99.6
2022-11-30T05:53:16.969Z,99.5
2022-11-30T05:54:16.436Z,99.5
2022-11-30T05:55:16.899Z,99.6
2022-11-30T05:56:17.366Z,99.6
2022-11-30T05:57:16.847Z,99.6
2022-11-30T05:58:17.325Z,99.6
2022-11-30T05:59:16.781Z,99.6
2022-11-30T06:00:17.278Z,99.6
2022-11-30T06:01:16.756Z,99.7
2022-11-30T06:02:16.600Z,99.7
2022-11-30T06:03:17.512Z,99.7
2022-11-30T06:04:17.071Z,99.7
2022-11-30T06:05:16.561Z,99.7
2022-11-30T06:06:17.050Z,99.7
2022-11-30T06:07:16.630Z,99.6
2022-11-30T06:08:17.128Z,99.7
2022-11-30T06:09:16.625Z,99.7
2022-11-30T06:10:17.116Z,99.7
2022-11-30T06:11:16.597Z,99.6
2022-11-30T06:12:16.746Z,99.6
2022-11-30T06:13:17.255Z,99.6
2022-11-30T06:14:16.756Z,99.6
2022-11-30T06:15:17.291Z,99.7
2022-11-30T06:16:16.918Z,99.7
2022-11-30T06:17:17.464Z,99.7
2022-11-30T06:18:16.940Z,99.7
2022-11-30T06:19:17.420Z,99.6
2022-11-30T06:20:16.862Z,99.7
2022-11-30T06:21:24.569Z,99.7
2022-11-30T06:22:17.217Z,99.8
2022-11-30T06:23:16.705Z,99.8
2022-11-30T06:24:17.217Z,99.8
2022-11-30T06:25:16.670Z,99.8
2022-11-30T06:26:17.130Z,99.8
2022-11-30T06:27:16.632Z,99.8
2022-11-30T06:28:17.122Z,99.8
2022-11-30T06:29:16.617Z,99.8
2022-11-30T06:30:17.129Z,99.8
2022-11-30T06:31:16.891Z,99.9
2022-11-30T06:32:16.914Z,100.0
2022-11-30T06:33:17.432Z,100.0
2022-11-30T06:34:16.892Z,100.0
2022-11-30T06:35:17.353Z,100.0
2022-11-30T06:36:16.845Z,100.0
2022-11-30T06:37:17.360Z,100.0
2022-11-30T06:38:16.832Z,100.0
2022-11-30T06:39:50.420Z,100.0
2022-11-30T06:40:16.800Z,100.0
2022-11-30T06:41:17.289Z,100.0
2022-11-30T06:42:17.238Z,100.0
2022-11-30T06:43:16.739Z,100.0
2022-11-30T06:44:17.241Z,100.0
2022-11-30T06:45:16.725Z,100.0
2022-11-30T06:46:17.319Z,100.0
2022-11-30T06:47:16.846Z,100.0
2022-11-30T06:48:17.345Z,100.0
2022-11-30T06:49:16.819Z,100.0
2022-11-30T06:50:17.289Z,100.0
2022-11-30T06:51:16.783Z,99.9
2022-11-30T06:52:17.271Z,99.8
2022-11-30T06:53:16.727Z,99.8
2022-11-30T06:54:17.216Z,99.8
2022-11-30T06:55:16.693Z,99.8
2022-11-30T06:56:17.165Z,99.8
2022-11-30T06:57:16.702Z,99.8
2022-11-30T06:58:17.197Z,99.8
2022-11-30T06:59:16.671Z,99.8
2022-11-30T07:00:17.162Z,99.8
2022-11-30T07:01:16.798Z,99.8
2022-11-30T07:02:19.136Z,99.8
2022-11-30T07:03:16.665Z,99.8
2022-11-30T07:04:17.294Z,99.8
2022-11-30T07:05:16.776Z,99.8
2022-11-30T07:06:17.238Z,99.8
2022-11-30T07:07:16.740Z,99.8
2022-11-30T07:08:17.252Z,99.8
2022-11-30T07:09:16.768Z,99.7
2022-11-30T07:10:20.553Z,99.7
2022-11-30T07:11:17.065Z,99.7
2022-11-30T07:12:17.146Z,99.6
2022-11-30T07:13:16.636Z,99.5
2022-11-30T07:14:17.146Z,99.5
2022-11-30T07:15:16.626Z,99.5
2022-11-30T07:16:17.168Z,99.5
2022-11-30T07:17:16.647Z,99.6
2022-11-30T07:18:17.115Z,99.5
2022-11-30T07:19:16.570Z,99.5
2022-11-30T07:20:17.070Z,99.5
2022-11-30T07:21:16.573Z,99.5
2022-11-30T07:22:17.184Z,99.5
2022-11-30T07:23:16.655Z,99.5
2022-11-30T07:24:17.165Z,99.4
2022-11-30T07:25:16.653Z,99.5
2022-11-30T07:26:17.169Z,99.5
2022-11-30T07:27:16.689Z,99.6
2022-11-30T07:28:17.196Z,99.5
2022-11-30T07:29:16.661Z,99.5
2022-11-30T07:30:17.120Z,99.5
2022-11-30T07:31:17.047Z,99.5
2022-11-30T07:32:17.159Z,99.5
2022-11-30T07:33:16.646Z,99.5
2022-11-30T07:34:17.133Z,99.5
2022-11-30T07:35:16.645Z,99.5
2022-11-30T07:36:17.146Z,99.6
2022-11-30T07:37:16.669Z,99.6
2022-11-30T07:38:17.191Z,99.6
2022-11-30T07:39:16.661Z,99.5
2022-11-30T07:40:17.167Z,99.5
2022-11-30T07:41:16.670Z,99.5
2022-11-30T07:42:17.214Z,99.5
2022-11-30T07:43:16.701Z,99.5
2022-11-30T07:44:17.178Z,99.5
2022-11-30T07:45:16.632Z,99.5
2022-11-30T07:46:17.291Z,99.5
2022-11-30T07:47:16.766Z,99.5
2022-11-30T07:48:17.247Z,99.4
2022-11-30T07:49:16.737Z,99.5
2022-11-30T07:50:17.260Z,99.5
2022-11-30T07:51:16.757Z,99.5
2022-11-30T07:52:16.552Z,99.4
2022-11-30T07:53:17.050Z,99.3
2022-11-30T07:54:16.552Z,99.2
2022-11-30T07:55:17.053Z,99.2
2022-11-30T07:56:16.533Z,99.1
2022-11-30T07:57:16.998Z,99.1
2022-11-30T07:58:17.863Z,99.2
2022-11-30T07:59:17.385Z,99.2
2022-11-30T08:00:16.844Z,99.0
2022-11-30T08:01:17.841Z,99.0
2022-11-30T08:02:16.971Z,99.1
2022-11-30T08:03:16.572Z,99.2
2022-11-30T08:04:17.197Z,99.2
2022-11-30T08:05:16.681Z,99.1
2022-11-30T08:06:17.194Z,99.0
2022-11-30T08:07:16.713Z,99.0
2022-11-30T08:08:17.186Z,99.0
2022-11-30T08:09:21.065Z,98.9
2022-11-30T08:10:16.660Z,98.9
2022-11-30T08:11:17.123Z,99.0
2022-11-30T08:12:16.514Z,98.8
2022-11-30T08:13:17.034Z,98.8
2022-11-30T08:14:16.501Z,98.8
2022-11-30T08:15:23.412Z,98.8
2022-11-30T08:16:16.740Z,99.0
2022-11-30T08:17:17.283Z,99.0
2022-11-30T08:18:16.824Z,99.0
2022-11-30T08:19:17.321Z,98.9
2022-11-30T08:20:16.813Z,98.9
2022-11-30T08:21:17.305Z,98.9
2022-11-30T08:22:17.047Z,98.8
2022-11-30T08:23:16.537Z,98.8
2022-11-30T08:24:17.243Z,98.8
2022-11-30T08:25:16.778Z,98.8
2022-11-30T08:26:17.256Z,98.6
2022-11-30T08:27:16.739Z,98.7
2022-11-30T08:28:17.237Z,98.7
2022-11-30T08:29:16.726Z,98.7
2022-11-30T08:30:17.226Z,98.7
2022-11-30T08:31:16.900Z,98.4
2022-11-30T08:32:17.372Z,98.5
2022-11-30T08:33:16.845Z,98.6
2022-11-30T08:34:17.364Z,98.5
2022-11-30T08:35:16.853Z,98.6
2022-11-30T08:36:17.392Z,98.3
2022-11-30T08:37:16.872Z,98.5
2022-11-30T08:38:17.347Z,98.6
2022-11-30T08:39:16.855Z,98.5
2022-11-30T08:40:17.365Z,98.5
2022-11-30T08:41:16.859Z,98.4
2022-11-30T08:42:16.673Z,98.3
2022-11-30T08:43:17.195Z,98.3
2022-11-30T08:44:16.652Z,98.1
2022-11-30T08:45:17.129Z,98.3
2022-11-30T08:46:50.146Z,98.0
2022-11-30T08:47:17.250Z,97.9
2022-11-30T08:48:16.758Z,98.1
2022-11-30T08:49:23.317Z,98.5
2022-11-30T08:50:17.321Z,98.4
2022-11-30T08:51:16.808Z,98.3
2022-11-30T08:52:28.948Z,98.2
2022-11-30T08:53:17.413Z,98.2
2022-11-30T08:54:16.896Z,98.3
2022-11-30T08:55:17.388Z,98.5
2022-11-30T08:56:16.911Z,98.4
2022-11-30T08:57:17.475Z,98.4
2022-11-30T08:58:17.051Z,98.3
2022-11-30T08:59:16.542Z,98.3
2022-11-30T09:00:17.022Z,98.5
2022-11-30T09:01:16.479Z,98.4
2022-11-30T09:02:17.595Z,98.6
2022-11-30T09:03:17.149Z,98.5
2022-11-30T09:04:16.649Z,98.3
2022-11-30T09:05:17.117Z,98.5
2022-11-30T09:06:16.623Z,98.5
2022-11-30T09:07:17.120Z,98.5
2022-11-30T09:08:16.615Z,98.5
2022-11-30T09:09:17.084Z,98.6
2022-11-30T09:10:16.549Z,98.4
2022-11-30T09:11:17.019Z,98.3
2022-11-30T09:12:17.019Z,98.2
2022-11-30T09:13:16.520Z,98.2
2022-11-30T09:14:17.043Z,98.2
2022-11-30T09:15:16.549Z,98.4
2022-11-30T09:16:17.118Z,98.4
2022-11-30T09:17:16.644Z,98.3
2022-11-30T09:18:17.159Z,98.3
2022-11-30T09:19:16.733Z,98.3
2022-11-30T09:20:17.434Z,98.5
2022-11-30T09:21:16.910Z,98.5
2022-11-30T09:22:16.598Z,98.6
2022-11-30T09:23:17.113Z,98.5
2022-11-30T09:24:16.589Z,98.5
2022-11-30T09:25:17.089Z,98.7
2022-11-30T09:26:16.575Z,98.7
2022-11-30T09:27:17.065Z,98.5
2022-11-30T09:28:16.528Z,98.5
2022-11-30T09:29:17.044Z,98.3
2022-11-30T09:30:16.533Z,98.4
2022-11-30T09:31:17.169Z,98.3
2022-11-30T09:32:16.548Z,98.3
2022-11-30T09:33:17.043Z,98.2
2022-11-30T09:34:16.527Z,98.4
2022-11-30T09:35:17.035Z,98.2
2022-11-30T09:36:16.536Z,98.5
2022-11-30T09:37:17.030Z,98.2
2022-11-30T09:38:16.511Z,97.5
2022-11-30T09:39:16.979Z,97.7
2022-11-30T09:40:16.486Z,97.9
2022-11-30T09:41:17.009Z,98.0
2022-11-30T09:42:16.860Z,97.7
2022-11-30T09:43:17.439Z,97.9
2022-11-30T09:44:16.903Z,97.7
2022-11-30T09:45:17.384Z,97.6
2022-11-30T09:46:17.049Z,97.8
2022-11-30T09:47:16.573Z,97.9
2022-11-30T09:48:17.066Z,98.0
2022-11-30T09:49:16.580Z,98.0
2022-11-30T09:50:17.076Z,98.0
2022-11-30T09:51:16.558Z,98.2
2022-11-30T09:52:16.751Z,98.2
2022-11-30T09:53:17.253Z,97.7
2022-11-30T09:54:16.729Z,97.8
2022-11-30T09:55:17.201Z,97.6
2022-11-30T09:56:16.664Z,97.5
2022-11-30T09:57:17.162Z,98.0
2022-11-30T09:58:16.659Z,97.5
2022-11-30T09:59:17.129Z,97.1
2022-11-30T10:00:16.660Z,97.2
2022-11-30T10:01:17.267Z,97.5
2022-11-30T10:02:17.400Z,97.1
2022-11-30T10:03:17.203Z,97.2
2022-11-30T10:04:16.746Z,97.2
2022-11-30T10:05:17.243Z,97.1
2022-11-30T10:06:16.710Z,97.0
2022-11-30T10:07:17.273Z,97.2
2022-11-30T10:08:18.515Z,97.2
2022-11-30T10:09:17.036Z,97.3
2022-11-30T10:10:32.882Z,97.3
2022-11-30T10:11:16.900Z,97.3
2022-11-30T10:12:16.591Z,97.0
2022-11-30T10:13:17.046Z,97.0
2022-11-30T10:14:16.507Z,97.2
2022-11-30T10:15:16.989Z,97.2
2022-11-30T10:16:16.558Z,96.1
2022-11-30T10:17:17.069Z,96.0
2022-11-30T10:18:16.560Z,96.2
2022-11-30T10:19:17.017Z,96.0
2022-11-30T10:20:16.657Z,96.1
2022-11-30T10:21:17.198Z,96.0
2022-11-30T10:22:16.969Z,96.2
2022-11-30T10:23:17.749Z,96.2
2022-11-30T10:24:16.478Z,96.2
2022-11-30T10:25:16.963Z,95.9
2022-11-30T10:26:17.465Z,96.0
2022-11-30T10:27:16.949Z,96.2
2022-11-30T10:28:46.390Z,96.5
2022-11-30T10:29:16.901Z,96.7
2022-11-30T10:30:17.385Z,96.5
2022-11-30T10:31:17.063Z,96.1
2022-11-30T10:32:17.153Z,96.2
2022-11-30T10:33:16.636Z,96.2
2022-11-30T10:34:17.096Z,95.9
2022-11-30T10:35:16.598Z,96.3
2022-11-30T10:36:17.091Z,95.8
2022-11-30T10:37:16.572Z,96.0
2022-11-30T10:38:17.054Z,96.4
2022-11-30T10:39:16.555Z,96.2
2022-11-30T10:40:17.030Z,96.2
2022-11-30T10:41:16.509Z,96.1
2022-11-30T10:42:16.811Z,96.5
2022-11-30T10:43:17.334Z,96.2
2022-11-30T10:44:16.803Z,96.5
2022-11-30T10:45:17.308Z,95.9
2022-11-30T10:46:17.575Z,96.0
2022-11-30T10:47:17.046Z,96.1
2022-11-30T10:48:16.545Z,95.8
2022-11-30T10:49:17.036Z,96.1
2022-11-30T10:50:16.761Z,96.0
2022-11-30T10:51:17.300Z,95.8
2022-11-30T10:52:16.828Z,95.9
2022-11-30T10:53:17.299Z,95.8
2022-11-30T10:54:16.777Z,96.0
2022-11-30T10:55:17.250Z,96.0
2022-11-30T10:56:16.729Z,95.7
2022-11-30T10:57:17.203Z,95.7
2022-11-30T10:58:16.673Z,95.8
2022-11-30T10:59:17.140Z,95.8
2022-11-30T11:00:16.626Z,95.9
2022-11-30T11:01:17.298Z,95.8
2022-11-30T11:02:17.406Z,96.3
2022-11-30T11:03:16.916Z,96.0
2022-11-30T11:04:17.529Z,96.2
2022-11-30T11:05:17.042Z,96.2
2022-11-30T11:06:16.525Z,95.9
2022-11-30T11:07:17.134Z,96.1
2022-11-30T11:08:17.016Z,95.9
2022-11-30T11:09:16.539Z,96.2
2022-11-30T11:10:17.052Z,95.8
2022-11-30T11:11:16.544Z,95.7
2022-11-30T11:12:16.820Z,95.8
2022-11-30T11:13:17.335Z,95.3
2022-11-30T11:14:16.840Z,95.5
2022-11-30T11:15:17.341Z,95.5
2022-11-30T11:16:17.042Z,95.7
2022-11-30T11:17:16.592Z,95.5
2022-11-30T11:18:17.109Z,96.0
2022-11-30T11:19:16.624Z,95.4
2022-11-30T11:20:17.092Z,95.0
2022-11-30T11:21:16.620Z,94.9
2022-11-30T11:22:17.129Z,95.1
2022-11-30T11:23:16.594Z,95.3
2022-11-30T11:24:17.094Z,95.4
2022-11-30T11:25:16.574Z,95.5
2022-11-30T11:26:17.058Z,95.1
2022-11-30T11:27:16.536Z,95.1
2022-11-30T11:28:17.032Z,94.9
2022-11-30T11:29:16.535Z,95.2
2022-11-30T11:30:17.060Z,95.2
2022-11-30T11:31:16.631Z,95.6
2022-11-30T11:32:17.419Z,95.3
2022-11-30T11:33:16.983Z,95.6
2022-11-30T11:34:16.495Z,96.2
2022-11-30T11:35:17.020Z,95.9
2022-11-30T11:36:16.497Z,95.5
2022-11-30T11:37:16.973Z,96.1
2022-11-30T11:38:16.452Z,95.6
2022-11-30T11:39:16.921Z,95.7
2022-11-30T11:40:17.407Z,95.7
2022-11-30T11:41:16.907Z,95.5
2022-11-30T11:42:22.544Z,95.5
2022-11-30T11:43:17.162Z,95.4
2022-11-30T11:44:16.643Z,95.5
2022-11-30T11:45:17.135Z,95.7
2022-11-30T11:46:16.816Z,95.7
2022-11-30T11:47:17.345Z,95.4
2022-11-30T11:48:16.816Z,95.4
2022-11-30T11:49:17.292Z,95.5
2022-11-30T11:50:16.762Z,95.6
2022-11-30T11:51:17.241Z,95.3
2022-11-30T11:52:17.259Z,95.3
2022-11-30T11:53:16.874Z,95.2
2022-11-30T11:54:17.450Z,95.2
2022-11-30T11:55:17.002Z,94.8
2022-11-30T11:56:16.471Z,95.0
2022-11-30T11:57:16.994Z,95.2
2022-11-30T11:58:16.528Z,95.0
2022-11-30T11:59:17.030Z,94.9
2022-11-30T12:00:16.986Z,95.0
2022-11-30T12:01:39.525Z,95.7
2022-11-30T12:02:17.337Z,95.4
2022-11-30T12:03:16.830Z,95.6
2022-11-30T12:04:17.496Z,95.2
2022-11-30T12:05:16.998Z,95.2
2022-11-30T12:06:16.511Z,95.3
2022-11-30T12:07:18.529Z,95.2
2022-11-30T12:08:17.025Z,95.5
2022-11-30T12:09:16.511Z,95.2
2022-11-30T12:10:51.041Z,94.8
2022-11-30T12:11:16.494Z,95.0
2022-11-30T12:12:16.851Z,95.4
2022-11-30T12:13:17.317Z,95.2
2022-11-30T12:14:16.848Z,94.1
2022-11-30T12:15:17.382Z,94.0
2022-11-30T12:16:16.984Z,94.6
2022-11-30T12:17:16.484Z,94.2
2022-11-30T12:18:24.467Z,94.7
2022-11-30T12:19:17.079Z,94.0
2022-11-30T12:20:16.565Z,94.8
2022-11-30T12:21:17.013Z,94.3
2022-11-30T12:22:16.492Z,94.7
2022-11-30T12:23:16.948Z,94.3
2022-11-30T12:24:17.570Z,94.7
2022-11-30T12:25:17.392Z,94.8
2022-11-30T12:26:16.950Z,94.8
2022-11-30T12:27:17.492Z,94.5
2022-11-30T12:28:17.016Z,94.8
2022-11-30T12:29:16.541Z,94.8
2022-11-30T12:30:17.051Z,94.8
2022-11-30T12:31:16.659Z,94.9
2022-11-30T12:32:17.436Z,94.7
2022-11-30T12:33:16.921Z,94.6
2022-11-30T12:34:17.431Z,94.6
2022-11-30T12:35:16.940Z,94.6
2022-11-30T12:36:17.425Z,94.0
2022-11-30T12:37:16.939Z,94.0
2022-11-30T12:38:17.413Z,94.3
2022-11-30T12:39:16.913Z,94.6
2022-11-30T12:40:17.406Z,93.8
2022-11-30T12:41:16.896Z,93.4
2022-11-30T12:42:16.507Z,93.7
2022-11-30T12:43:16.992Z,93.7
2022-11-30T12:44:16.490Z,94.1
2022-11-30T12:45:16.972Z,93.6
2022-11-30T12:46:17.538Z,93.9
2022-11-30T12:47:17.116Z,93.9
2022-11-30T12:48:16.582Z,93.5
2022-11-30T12:49:17.144Z,93.5
2022-11-30T12:50:16.669Z,93.5
2022-11-30T12:51:17.152Z,93.4
2022-11-30T12:52:16.688Z,93.8
2022-11-30T12:53:17.178Z,93.5
2022-11-30T12:54:16.941Z,93.4
2022-11-30T12:55:17.475Z,93.2
2022-11-30T12:56:16.947Z,93.3
2022-11-30T12:57:17.458Z,93.5
2022-11-30T12:58:16.981Z,93.4
2022-11-30T12:59:16.435Z,93.8
2022-11-30T13:00:16.926Z,93.2
2022-11-30T13:01:17.572Z,93.6
2022-11-30T13:02:17.352Z,93.2
2022-11-30T13:03:16.872Z,93.2
2022-11-30T13:04:17.355Z,93.8
2022-11-30T13:05:16.835Z,93.2
2022-11-30T13:06:17.338Z,93.3
2022-11-30T13:07:16.862Z,92.7
2022-11-30T13:08:17.328Z,92.8
2022-11-30T13:09:16.815Z,93.3
2022-11-30T13:10:17.304Z,93.0
2022-11-30T13:11:16.783Z,93.2
2022-11-30T13:12:17.139Z,93.4
2022-11-30T13:13:16.610Z,93.1
2022-11-30T13:14:17.104Z,93.5
2022-11-30T13:15:16.599Z,93.4
2022-11-30T13:16:17.223Z,93.3
2022-11-30T13:17:16.714Z,93.7